sensor_id;sensor_type;location;lat;lon;timestamp;temperature;humidity
43842;DHT22;29495;49.970;20.842;2022-12-18T00:02:18;-3.60;99.90
43842;DHT22;29495;49.970;20.842;2022-12-18T00:04:44;-3.60;99.90
43842;DHT22;29495;49.970;20.842;2022-12-18T00:07:13;-3.60;99.90
43842;DHT22;29495;49.970;20.842;2022-12-18T00:09:41;-3.60;99.90
43842;DHT22;29495;49.970;20.842;2022-12-18T00:12:23;-3.60;99.90
43842;DHT22;29495;49.970;20.842;2022-12-18T00:14:52;-3.60;99.90
43842;DHT22;29495;49.970;20.842;2022-12-18T00:17:36;-3.60;99.90
43842;DHT22;29495;49.970;20.842;2022-12-18T00:20:13;-3.60;99.90
43842;DHT22;29495;49.970;20.842;2022-12-18T00:22:59;-3.60;99.90
43842;DHT22;29495;49.970;20.842;2022-12-18T00:25:25;-3.60;99.90
43842;DHT22;29495;49.970;20.842;2022-12-18T00:28:40;-3.60;99.90
43842;DHT22;29495;49.970;20.842;2022-12-18T00:34:38;-3.60;99.90
43842;DHT22;29495;49.970;20.842;2022-12-18T00:37:25;-3.60;99.90
43842;DHT22;29495;49.970;20.842;2022-12-18T00:40:01;-3.60;99.90
43842;DHT22;29495;49.970;20.842;2022-12-18T04:48:00;-3.90;99.90
43842;DHT22;29495;49.970;20.842;2022-12-18T04:56:01;-3.80;99.90
43842;DHT22;29495;49.970;20.842;2022-12-18T08:51:53;-2.30;99.90
43842;DHT22;29495;49.970;20.842;2022-12-18T08:54:37;-2.30;99.90
43842;DHT22;29495;49.970;20.842;2022-12-18T09:11:51;-2.10;99.90
43842;DHT22;29495;49.970;20.842;2022-12-18T09:14:34;-2.00;99.90
43842;DHT22;29495;49.970;20.842;2022-12-18T09:41:04;-1.80;99.90
43842;DHT22;29495;49.970;20.842;2022-12-18T09:43:43;-1.90;99.90
43842;DHT22;29495;49.970;20.842;2022-12-18T09:46:24;-1.80;99.90
43842;DHT22;29495;49.970;20.842;2022-12-18T09:48:56;-1.80;99.90
43842;DHT22;29495;49.970;20.842;2022-12-18T09:54:38;-1.40;99.90
43842;DHT22;29495;49.970;20.842;2022-12-18T09:57:20;-1.40;99.90
43842;DHT22;29495;49.970;20.842;2022-12-18T10:00:23;-1.50;99.90
43842;DHT22;29495;49.970;20.842;2022-12-18T10:03:17;-1.40;99.90
43842;DHT22;29495;49.970;20.842;2022-12-18T10:06:31;-1.50;99.90
43842;DHT22;29495;49.970;20.842;2022-12-18T10:20:44;-1.30;99.90
43842;DHT22;29495;49.970;20.842;2022-12-18T10:35:27;-1.40;99.90
43842;DHT22;29495;49.970;20.842;2022-12-18T10:38:06;-1.40;99.90
43842;DHT22;29495;49.970;20.842;2022-12-18T10:44:21;-1.20;99.90
43842;DHT22;29495;49.970;20.842;2022-12-18T10:47:12;-1.20;99.90
43842;DHT22;29495;49.970;20.842;2022-12-18T10:49:48;-1.60;99.90
43842;DHT22;29495;49.970;20.842;2022-12-18T10:52:18;-1.70;99.90
43842;DHT22;29495;49.970;20.842;2022-12-18T10:55:01;-1.70;99.90
43842;DHT22;29495;49.970;20.842;2022-12-18T10:57:31;-1.40;99.90
43842;DHT22;29495;49.970;20.842;2022-12-18T11:00:01;-1.40;99.90
43842;DHT22;29495;49.970;20.842;2022-12-18T11:02:36;-1.50;99.90
43842;DHT22;29495;49.970;20.842;2022-12-18T11:05:10;-1.40;99.90
43842;DHT22;29495;49.970;20.842;2022-12-18T11:07:49;-1.50;99.90
43842;DHT22;29495;49.970;20.842;2022-12-18T11:10:17;-1.70;99.90
43842;DHT22;29495;49.970;20.842;2022-12-18T11:12:43;-1.60;99.90
43842;DHT22;29495;49.970;20.842;2022-12-18T11:15:30;-1.50;99.90
43842;DHT22;29495;49.970;20.842;2022-12-18T13:28:11;-1.90;99.90
43842;DHT22;29495;49.970;20.842;2022-12-18T13:31:10;-2.10;99.90
43842;DHT22;29495;49.970;20.842;2022-12-18T15:44:55;-3.10;99.90
43842;DHT22;29495;49.970;20.842;2022-12-18T15:47:31;-3.10;99.90
43842;DHT22;29495;49.970;20.842;2022-12-18T15:50:32;-3.00;99.90
43842;DHT22;29495;49.970;20.842;2022-12-18T15:53:19;-3.00;99.90
43842;DHT22;29495;49.970;20.842;2022-12-18T15:56:32;-3.00;99.90
43842;DHT22;29495;49.970;20.842;2022-12-18T15:59:44;-3.10;99.90
43842;DHT22;29495;49.970;20.842;2022-12-18T16:02:20;-3.30;99.90
43842;DHT22;29495;49.970;20.842;2022-12-18T16:04:57;-3.10;99.90
43842;DHT22;29495;49.970;20.842;2022-12-18T16:08:04;-3.20;99.90
43842;DHT22;29495;49.970;20.842;2022-12-18T16:10:53;-3.20;99.90
43842;DHT22;29495;49.970;20.842;2022-12-18T16:13:52;-3.10;99.90
43842;DHT22;29495;49.970;20.842;2022-12-18T16:16:48;-3.20;99.90
43842;DHT22;29495;49.970;20.842;2022-12-18T16:20:19;-3.20;99.90
43842;DHT22;29495;49.970;20.842;2022-12-18T16:26:23;-3.40;99.90
43842;DHT22;29495;49.970;20.842;2022-12-18T16:29:55;-3.20;99.90
43842;DHT22;29495;49.970;20.842;2022-12-18T16:36:49;-3.40;99.90
43842;DHT22;29495;49.970;20.842;2022-12-18T16:43:45;-3.60;99.90
43842;DHT22;29495;49.970;20.842;2022-12-18T16:47:11;-3.50;99.90
43842;DHT22;29495;49.970;20.842;2022-12-18T16:50:56;-3.50;99.90
43842;DHT22;29495;49.970;20.842;2022-12-18T16:53:40;-3.50;99.90
43842;DHT22;29495;49.970;20.842;2022-12-18T16:56:31;-3.50;99.90
43842;DHT22;29495;49.970;20.842;2022-12-18T16:59:20;-3.50;99.90
43842;DHT22;29495;49.970;20.842;2022-12-18T17:02:24;-3.50;99.90
43842;DHT22;29495;49.970;20.842;2022-12-18T17:05:15;-3.40;99.90
43842;DHT22;29495;49.970;20.842;2022-12-18T17:08:19;-3.50;99.90
43842;DHT22;29495;49.970;20.842;2022-12-18T17:10:55;-3.60;99.90
43842;DHT22;29495;49.970;20.842;2022-12-18T17:21:14;-3.50;99.90
43842;DHT22;29495;49.970;20.842;2022-12-18T17:24:08;-3.70;99.90
43842;DHT22;29495;49.970;20.842;2022-12-18T17:26:39;-3.50;99.90
43842;DHT22;29495;49.970;20.842;2022-12-18T17:29:23;-3.60;99.90
43842;DHT22;29495;49.970;20.842;2022-12-18T17:32:16;-3.60;99.90
43842;DHT22;29495;49.970;20.842;2022-12-18T17:34:48;-3.70;99.90
43842;DHT22;29495;49.970;20.842;2022-12-18T17:37:54;-3.80;99.90
43842;DHT22;29495;49.970;20.842;2022-12-18T17:40:32;-3.70;99.90
43842;DHT22;29495;49.970;20.842;2022-12-18T17:43:16;-3.90;99.90
43842;DHT22;29495;49.970;20.842;2022-12-18T17:46:24;-3.90;99.90
43842;DHT22;29495;49.970;20.842;2022-12-18T17:49:06;-4.00;99.90
43842;DHT22;29495;49.970;20.842;2022-12-18T17:55:35;-3.90;99.90
43842;DHT22;29495;49.970;20.842;2022-12-18T17:58:07;-3.90;99.90
43842;DHT22;29495;49.970;20.842;2022-12-18T18:01:00;-3.80;99.90
43842;DHT22;29495;49.970;20.842;2022-12-18T18:03:57;-3.80;99.90
43842;DHT22;29495;49.970;20.842;2022-12-18T18:06:37;-3.90;99.90
43842;DHT22;29495;49.970;20.842;2022-12-18T18:09:12;-4.00;99.90
43842;DHT22;29495;49.970;20.842;2022-12-18T18:11:47;-4.00;99.90
43842;DHT22;29495;49.970;20.842;2022-12-18T18:14:34;-4.00;99.90
43842;DHT22;29495;49.970;20.842;2022-12-18T18:17:00;-4.20;99.90
43842;DHT22;29495;49.970;20.842;2022-12-18T18:19:52;-4.30;99.90
43842;DHT22;29495;49.970;20.842;2022-12-18T18:22:34;-4.50;99.90
43842;DHT22;29495;49.970;20.842;2022-12-18T18:25:08;-4.60;99.90
43842;DHT22;29495;49.970;20.842;2022-12-18T18:27:56;-4.60;99.90
43842;DHT22;29495;49.970;20.842;2022-12-18T18:30:28;-4.60;99.90
43842;DHT22;29495;49.970;20.842;2022-12-18T18:33:10;-4.60;99.90
43842;DHT22;29495;49.970;20.842;2022-12-18T18:35:56;-4.60;99.90
43842;DHT22;29495;49.970;20.842;2022-12-18T18:38:34;-4.60;99.90
43842;DHT22;29495;49.970;20.842;2022-12-18T18:41:44;-4.80;99.90
43842;DHT22;29495;49.970;20.842;2022-12-18T18:44:56;-5.00;99.90
43842;DHT22;29495;49.970;20.842;2022-12-18T18:48:26;-4.90;99.90
43842;DHT22;29495;49.970;20.842;2022-12-18T18:51:23;-4.90;99.90
43842;DHT22;29495;49.970;20.842;2022-12-18T18:54:30;-4.80;99.90
43842;DHT22;29495;49.970;20.842;2022-12-18T18:57:26;-4.90;99.90
43842;DHT22;29495;49.970;20.842;2022-12-18T19:00:12;-4.90;99.90
43842;DHT22;29495;49.970;20.842;2022-12-18T19:02:51;-4.80;99.90
43842;DHT22;29495;49.970;20.842;2022-12-18T19:05:45;-4.70;99.90
43842;DHT22;29495;49.970;20.842;2022-12-18T19:13:02;-4.60;99.90
43842;DHT22;29495;49.970;20.842;2022-12-18T19:16:07;-4.60;99.90
43842;DHT22;29495;49.970;20.842;2022-12-18T19:19:04;-4.60;99.90
43842;DHT22;29495;49.970;20.842;2022-12-18T19:21:53;-4.60;99.90
43842;DHT22;29495;49.970;20.842;2022-12-18T19:24:19;-4.60;99.90
43842;DHT22;29495;49.970;20.842;2022-12-18T19:26:48;-4.70;99.90
43842;DHT22;29495;49.970;20.842;2022-12-18T19:32:56;-4.90;99.90
43842;DHT22;29495;49.970;20.842;2022-12-18T19:35:56;-5.00;99.90
43842;DHT22;29495;49.970;20.842;2022-12-18T19:38:57;-5.10;99.90
43842;DHT22;29495;49.970;20.842;2022-12-18T19:41:39;-5.20;99.90
43842;DHT22;29495;49.970;20.842;2022-12-18T19:44:28;-5.20;99.90
43842;DHT22;29495;49.970;20.842;2022-12-18T19:47:22;-5.30;99.90
43842;DHT22;29495;49.970;20.842;2022-12-18T19:50:01;-5.30;99.90
43842;DHT22;29495;49.970;20.842;2022-12-18T19:52:56;-5.40;99.90
43842;DHT22;29495;49.970;20.842;2022-12-18T19:55:41;-5.40;99.90
43842;DHT22;29495;49.970;20.842;2022-12-18T19:58:33;-5.50;99.90
43842;DHT22;29495;49.970;20.842;2022-12-18T20:01:23;-5.60;99.90
43842;DHT22;29495;49.970;20.842;2022-12-18T20:04:15;-5.60;99.90
43842;DHT22;29495;49.970;20.842;2022-12-18T20:07:06;-5.70;99.90
43842;DHT22;29495;49.970;20.842;2022-12-18T20:09:37;-5.70;99.90
43842;DHT22;29495;49.970;20.842;2022-12-18T20:19:46;-6.00;99.90
43842;DHT22;29495;49.970;20.842;2022-12-18T20:22:20;-6.00;99.90
43842;DHT22;29495;49.970;20.842;2022-12-18T20:25:03;-6.20;99.90
43842;DHT22;29495;49.970;20.842;2022-12-18T20:27:46;-6.30;99.90
43842;DHT22;29495;49.970;20.842;2022-12-18T20:30:32;-6.40;99.90
43842;DHT22;29495;49.970;20.842;2022-12-18T20:37:21;-6.60;99.90
43842;DHT22;29495;49.970;20.842;2022-12-18T20:39:50;-6.50;99.90
43842;DHT22;29495;49.970;20.842;2022-12-18T20:43:04;-6.60;99.90
43842;DHT22;29495;49.970;20.842;2022-12-18T20:46:07;-6.80;99.90
43842;DHT22;29495;49.970;20.842;2022-12-18T20:49:24;-7.10;99.90
43842;DHT22;29495;49.970;20.842;2022-12-18T20:52:06;-6.90;99.90
43842;DHT22;29495;49.970;20.842;2022-12-18T20:55:12;-7.00;99.90
43842;DHT22;29495;49.970;20.842;2022-12-18T20:58:41;-7.10;99.90
